sensor_id;sensor_type;location;lat;lon;timestamp;P1;durP1;ratioP1;P2;durP2;ratioP2
3359;SDS011;1693;49.602;11.046;2023-04-25T00:01:00;6.60;;;5.67;;
3359;SDS011;1693;49.602;11.046;2023-04-25T00:03:28;6.50;;;5.90;;
3359;SDS011;1693;49.602;11.046;2023-04-25T00:05:55;5.63;;;4.43;;
3359;SDS011;1693;49.602;11.046;2023-04-25T00:08:24;4.60;;;4.20;;
3359;SDS011;1693;49.602;11.046;2023-04-25T00:10:52;6.83;;;5.57;;
3359;SDS011;1693;49.602;11.046;2023-04-25T00:13:19;6.37;;;4.90;;
3359;SDS011;1693;49.602;11.046;2023-04-25T00:15:47;6.90;;;4.70;;
3359;SDS011;1693;49.602;11.046;2023-04-25T00:18:14;4.87;;;4.37;;
3359;SDS011;1693;49.602;11.046;2023-04-25T00:20:42;6.27;;;4.67;;
3359;SDS011;1693;49.602;11.046;2023-04-25T00:23:11;4.80;;;3.90;;
3359;SDS011;1693;49.602;11.046;2023-04-25T00:25:44;4.50;;;3.93;;
3359;SDS011;1693;49.602;11.046;2023-04-25T00:28:11;4.60;;;4.20;;
3359;SDS011;1693;49.602;11.046;2023-04-25T00:30:39;3.80;;;3.50;;
3359;SDS011;1693;49.602;11.046;2023-04-25T00:33:07;5.80;;;4.33;;
3359;SDS011;1693;49.602;11.046;2023-04-25T00:35:35;3.83;;;3.50;;
3359;SDS011;1693;49.602;11.046;2023-04-25T00:38:02;4.40;;;3.70;;
3359;SDS011;1693;49.602;11.046;2023-04-25T00:40:29;4.60;;;3.87;;
3359;SDS011;1693;49.602;11.046;2023-04-25T00:42:57;6.53;;;4.20;;
3359;SDS011;1693;49.602;11.046;2023-04-25T00:45:27;4.13;;;3.70;;
3359;SDS011;1693;49.602;11.046;2023-04-25T00:47:55;4.00;;;3.60;;
3359;SDS011;1693;49.602;11.046;2023-04-25T00:50:23;5.73;;;4.70;;
3359;SDS011;1693;49.602;11.046;2023-04-25T00:52:50;3.60;;;2.90;;
3359;SDS011;1693;49.602;11.046;2023-04-25T00:55:18;4.73;;;4.30;;
3359;SDS011;1693;49.602;11.046;2023-04-25T00:57:46;4.73;;;3.87;;
3359;SDS011;1693;49.602;11.046;2023-04-25T01:00:16;4.03;;;3.63;;
3359;SDS011;1693;49.602;11.046;2023-04-25T01:02:44;4.97;;;3.63;;
3359;SDS011;1693;49.602;11.046;2023-04-25T01:05:11;4.50;;;3.63;;
3359;SDS011;1693;49.602;11.046;2023-04-25T01:07:38;4.37;;;3.77;;
3359;SDS011;1693;49.602;11.046;2023-04-25T01:10:06;4.23;;;3.50;;
3359;SDS011;1693;49.602;11.046;2023-04-25T01:12:34;7.10;;;4.10;;
3359;SDS011;1693;49.602;11.046;2023-04-25T01:15:02;4.03;;;3.30;;
3359;SDS011;1693;49.602;11.046;2023-04-25T01:17:31;4.10;;;3.70;;
3359;SDS011;1693;49.602;11.046;2023-04-25T01:19:58;4.20;;;3.80;;
3359;SDS011;1693;49.602;11.046;2023-04-25T01:22:27;4.27;;;3.87;;
3359;SDS011;1693;49.602;11.046;2023-04-25T01:24:54;4.10;;;3.70;;
3359;SDS011;1693;49.602;11.046;2023-04-25T01:27:22;6.43;;;5.00;;
3359;SDS011;1693;49.602;11.046;2023-04-25T01:29:49;4.33;;;2.90;;
3359;SDS011;1693;49.602;11.046;2023-04-25T01:32:17;8.50;;;3.90;;
3359;SDS011;1693;49.602;11.046;2023-04-25T01:34:44;4.70;;;4.30;;
3359;SDS011;1693;49.602;11.046;2023-04-25T01:37:12;3.80;;;3.20;;
3359;SDS011;1693;49.602;11.046;2023-04-25T01:39:41;3.43;;;2.97;;
3359;SDS011;1693;49.602;11.046;2023-04-25T01:42:10;3.10;;;2.80;;
3359;SDS011;1693;49.602;11.046;2023-04-25T01:44:37;4.43;;;3.80;;
3359;SDS011;1693;49.602;11.046;2023-04-25T01:47:04;3.80;;;3.47;;
3359;SDS011;1693;49.602;11.046;2023-04-25T01:49:31;4.80;;;3.60;;
3359;SDS011;1693;49.602;11.046;2023-04-25T01:51:58;3.50;;;3.20;;
3359;SDS011;1693;49.602;11.046;2023-04-25T01:54:25;4.33;;;3.43;;
3359;SDS011;1693;49.602;11.046;2023-04-25T01:56:54;3.57;;;3.23;;
3359;SDS011;1693;49.602;11.046;2023-04-25T01:59:23;4.63;;;3.90;;
3359;SDS011;1693;49.602;11.046;2023-04-25T02:01:51;5.30;;;4.80;;
3359;SDS011;1693;49.602;11.046;2023-04-25T02:04:18;3.80;;;3.47;;
3359;SDS011;1693;49.602;11.046;2023-04-25T02:06:47;3.77;;;3.47;;
3359;SDS011;1693;49.602;11.046;2023-04-25T02:09:14;4.13;;;3.27;;
3359;SDS011;1693;49.602;11.046;2023-04-25T02:11:41;3.40;;;3.10;;
3359;SDS011;1693;49.602;11.046;2023-04-25T02:14:10;8.33;;;4.07;;
3359;SDS011;1693;49.602;11.046;2023-04-25T02:16:37;3.97;;;3.43;;
3359;SDS011;1693;49.602;11.046;2023-04-25T02:19:04;5.67;;;3.70;;
3359;SDS011;1693;49.602;11.046;2023-04-25T02:21:32;5.13;;;3.80;;
3359;SDS011;1693;49.602;11.046;2023-04-25T02:24:00;4.00;;;3.60;;
3359;SDS011;1693;49.602;11.046;2023-04-25T02:26:27;5.63;;;4.30;;
3359;SDS011;1693;49.602;11.046;2023-04-25T02:28:55;5.03;;;3.77;;
3359;SDS011;1693;49.602;11.046;2023-04-25T02:31:24;4.37;;;3.97;;
3359;SDS011;1693;49.602;11.046;2023-04-25T02:33:51;4.53;;;3.50;;
3359;SDS011;1693;49.602;11.046;2023-04-25T02:36:18;3.90;;;3.50;;
3359;SDS011;1693;49.602;11.046;2023-04-25T02:38:45;11.83;;;4.03;;
3359;SDS011;1693;49.602;11.046;2023-04-25T02:41:12;5.00;;;3.80;;
3359;SDS011;1693;49.602;11.046;2023-04-25T02:43:40;4.80;;;4.30;;
3359;SDS011;1693;49.602;11.046;2023-04-25T02:46:07;3.83;;;3.40;;
3359;SDS011;1693;49.602;11.046;2023-04-25T02:48:35;5.40;;;3.83;;
3359;SDS011;1693;49.602;11.046;2023-04-25T02:51:04;4.40;;;4.00;;
3359;SDS011;1693;49.602;11.046;2023-04-25T02:53:31;8.00;;;4.50;;
3359;SDS011;1693;49.602;11.046;2023-04-25T02:55:58;9.50;;;4.27;;
3359;SDS011;1693;49.602;11.046;2023-04-25T02:58:25;4.00;;;3.60;;
3359;SDS011;1693;49.602;11.046;2023-04-25T03:00:52;5.93;;;4.27;;
3359;SDS011;1693;49.602;11.046;2023-04-25T03:03:19;4.00;;;3.60;;
3359;SDS011;1693;49.602;11.046;2023-04-25T03:05:48;5.97;;;3.90;;
3359;SDS011;1693;49.602;11.046;2023-04-25T03:08:15;4.23;;;3.80;;
3359;SDS011;1693;49.602;11.046;2023-04-25T03:10:42;4.70;;;4.30;;
3359;SDS011;1693;49.602;11.046;2023-04-25T03:13:09;4.73;;;4.20;;
3359;SDS011;1693;49.602;11.046;2023-04-25T03:15:37;5.27;;;4.33;;
3359;SDS011;1693;49.602;11.046;2023-04-25T03:18:04;4.73;;;4.17;;
3359;SDS011;1693;49.602;11.046;2023-04-25T03:20:31;4.57;;;4.17;;
3359;SDS011;1693;49.602;11.046;2023-04-25T03:22:59;5.33;;;4.83;;
3359;SDS011;1693;49.602;11.046;2023-04-25T03:25:27;5.20;;;4.67;;
3359;SDS011;1693;49.602;11.046;2023-04-25T03:27:54;4.70;;;3.93;;
3359;SDS011;1693;49.602;11.046;2023-04-25T03:30:21;4.90;;;4.43;;
3359;SDS011;1693;49.602;11.046;2023-04-25T03:32:48;5.07;;;4.07;;
3359;SDS011;1693;49.602;11.046;2023-04-25T03:35:16;4.80;;;4.20;;
3359;SDS011;1693;49.602;11.046;2023-04-25T03:37:43;5.63;;;4.50;;
3359;SDS011;1693;49.602;11.046;2023-04-25T03:40:12;5.33;;;4.83;;
3359;SDS011;1693;49.602;11.046;2023-04-25T03:42:39;6.07;;;5.40;;
3359;SDS011;1693;49.602;11.046;2023-04-25T03:45:07;5.10;;;4.00;;
3359;SDS011;1693;49.602;11.046;2023-04-25T03:47:34;5.33;;;3.83;;
3359;SDS011;1693;49.602;11.046;2023-04-25T03:50:01;4.83;;;4.10;;
3359;SDS011;1693;49.602;11.046;2023-04-25T03:52:29;6.07;;;5.47;;
3359;SDS011;1693;49.602;11.046;2023-04-25T03:54:56;4.90;;;4.40;;
3359;SDS011;1693;49.602;11.046;2023-04-25T03:57:24;6.07;;;5.13;;
3359;SDS011;1693;49.602;11.046;2023-04-25T03:59:51;7.43;;;5.20;;
3359;SDS011;1693;49.602;11.046;2023-04-25T04:02:18;6.10;;;4.57;;
3359;SDS011;1693;49.602;11.046;2023-04-25T04:04:46;8.13;;;5.00;;
3359;SDS011;1693;49.602;11.046;2023-04-25T04:07:13;6.90;;;6.03;;
3359;SDS011;1693;49.602;11.046;2023-04-25T04:09:40;5.33;;;4.83;;
3359;SDS011;1693;49.602;11.046;2023-04-25T04:12:08;5.63;;;4.73;;
3359;SDS011;1693;49.602;11.046;2023-04-25T04:14:36;6.90;;;5.17;;
3359;SDS011;1693;49.602;11.046;2023-04-25T04:17:03;6.07;;;5.43;;
3359;SDS011;1693;49.602;11.046;2023-04-25T04:19:31;6.00;;;5.20;;
3359;SDS011;1693;49.602;11.046;2023-04-25T04:21:58;7.63;;;5.90;;
3359;SDS011;1693;49.602;11.046;2023-04-25T04:24:25;5.57;;;4.90;;
3359;SDS011;1693;49.602;11.046;2023-04-25T04:26:52;6.93;;;5.97;;
3359;SDS011;1693;49.602;11.046;2023-04-25T04:29:20;5.77;;;4.90;;
3359;SDS011;1693;49.602;11.046;2023-04-25T04:31:49;6.60;;;4.80;;
3359;SDS011;1693;49.602;11.046;2023-04-25T04:34:17;7.23;;;6.30;;
3359;SDS011;1693;49.602;11.046;2023-04-25T04:36:44;6.93;;;5.50;;
3359;SDS011;1693;49.602;11.046;2023-04-25T04:39:12;8.13;;;5.67;;
3359;SDS011;1693;49.602;11.046;2023-04-25T04:41:39;8.10;;;6.10;;
3359;SDS011;1693;49.602;11.046;2023-04-25T04:44:06;6.10;;;5.50;;
3359;SDS011;1693;49.602;11.046;2023-04-25T04:46:34;5.93;;;5.30;;
3359;SDS011;1693;49.602;11.046;2023-04-25T04:49:05;22.93;;;16.43;;
3359;SDS011;1693;49.602;11.046;2023-04-25T04:51:32;7.07;;;5.00;;
3359;SDS011;1693;49.602;11.046;2023-04-25T04:53:59;9.73;;;5.77;;
3359;SDS011;1693;49.602;11.046;2023-04-25T04:56:27;5.40;;;4.90;;
3359;SDS011;1693;49.602;11.046;2023-04-25T04:58:56;5.83;;;5.23;;
3359;SDS011;1693;49.602;11.046;2023-04-25T05:01:23;6.90;;;5.17;;
3359;SDS011;1693;49.602;11.046;2023-04-25T05:03:51;5.80;;;5.23;;
3359;SDS011;1693;49.602;11.046;2023-04-25T05:06:19;6.37;;;5.73;;
3359;SDS011;1693;49.602;11.046;2023-04-25T05:08:46;6.73;;;5.03;;
3359;SDS011;1693;49.602;11.046;2023-04-25T05:11:14;8.30;;;5.40;;
3359;SDS011;1693;49.602;11.046;2023-04-25T05:13:41;5.97;;;4.93;;
3359;SDS011;1693;49.602;11.046;2023-04-25T05:16:08;6.30;;;4.87;;
3359;SDS011;1693;49.602;11.046;2023-04-25T05:18:35;5.33;;;4.37;;
3359;SDS011;1693;49.602;11.046;2023-04-25T05:21:03;5.10;;;4.40;;
3359;SDS011;1693;49.602;11.046;2023-04-25T05:23:33;6.10;;;4.60;;
3359;SDS011;1693;49.602;11.046;2023-04-25T05:26:03;4.77;;;4.10;;
3359;SDS011;1693;49.602;11.046;2023-04-25T05:28:38;5.03;;;4.53;;
3359;SDS011;1693;49.602;11.046;2023-04-25T05:31:09;4.13;;;3.73;;
3359;SDS011;1693;49.602;11.046;2023-04-25T05:33:40;4.10;;;3.63;;
3359;SDS011;1693;49.602;11.046;2023-04-25T05:36:10;3.40;;;3.10;;
3359;SDS011;1693;49.602;11.046;2023-04-25T05:38:40;3.80;;;3.50;;
3359;SDS011;1693;49.602;11.046;2023-04-25T05:41:10;4.43;;;4.03;;
3359;SDS011;1693;49.602;11.046;2023-04-25T05:43:38;3.97;;;3.20;;
3359;SDS011;1693;49.602;11.046;2023-04-25T05:46:10;3.90;;;3.50;;
3359;SDS011;1693;49.602;11.046;2023-04-25T05:48:37;8.40;;;4.43;;
3359;SDS011;1693;49.602;11.046;2023-04-25T05:51:04;4.13;;;3.50;;
3359;SDS011;1693;49.602;11.046;2023-04-25T05:53:31;3.40;;;3.10;;
3359;SDS011;1693;49.602;11.046;2023-04-25T05:56:00;5.10;;;3.50;;
3359;SDS011;1693;49.602;11.046;2023-04-25T05:58:27;4.97;;;3.73;;
3359;SDS011;1693;49.602;11.046;2023-04-25T06:00:55;3.80;;;3.00;;
3359;SDS011;1693;49.602;11.046;2023-04-25T06:03:22;4.90;;;4.40;;
3359;SDS011;1693;49.602;11.046;2023-04-25T06:05:49;5.30;;;4.80;;
3359;SDS011;1693;49.602;11.046;2023-04-25T06:08:16;4.33;;;3.77;;
3359;SDS011;1693;49.602;11.046;2023-04-25T06:10:43;5.30;;;4.80;;
3359;SDS011;1693;49.602;11.046;2023-04-25T06:13:11;5.93;;;4.67;;
3359;SDS011;1693;49.602;11.046;2023-04-25T06:15:39;5.23;;;4.43;;
3359;SDS011;1693;49.602;11.046;2023-04-25T06:18:06;5.67;;;4.70;;
3359;SDS011;1693;49.602;11.046;2023-04-25T06:20:34;5.57;;;4.63;;
3359;SDS011;1693;49.602;11.046;2023-04-25T06:23:02;6.77;;;4.80;;
3359;SDS011;1693;49.602;11.046;2023-04-25T06:25:29;6.30;;;5.80;;
3359;SDS011;1693;49.602;11.046;2023-04-25T06:27:56;6.00;;;5.50;;
3359;SDS011;1693;49.602;11.046;2023-04-25T06:30:25;7.57;;;6.80;;
3359;SDS011;1693;49.602;11.046;2023-04-25T06:32:52;7.40;;;6.70;;
3359;SDS011;1693;49.602;11.046;2023-04-25T06:35:20;8.43;;;6.23;;
3359;SDS011;1693;49.602;11.046;2023-04-25T06:37:47;8.90;;;7.60;;
3359;SDS011;1693;49.602;11.046;2023-04-25T06:40:14;9.07;;;7.93;;
3359;SDS011;1693;49.602;11.046;2023-04-25T06:42:42;8.53;;;7.40;;
3359;SDS011;1693;49.602;11.046;2023-04-25T06:45:10;8.87;;;7.23;;
3359;SDS011;1693;49.602;11.046;2023-04-25T06:47:38;11.33;;;7.70;;
3359;SDS011;1693;49.602;11.046;2023-04-25T06:50:06;9.17;;;8.23;;
3359;SDS011;1693;49.602;11.046;2023-04-25T06:52:34;13.17;;;8.10;;
3359;SDS011;1693;49.602;11.046;2023-04-25T06:55:01;9.03;;;8.13;;
3359;SDS011;1693;49.602;11.046;2023-04-25T06:57:29;9.93;;;8.00;;
3359;SDS011;1693;49.602;11.046;2023-04-25T06:59:57;10.43;;;8.47;;
3359;SDS011;1693;49.602;11.046;2023-04-25T07:02:24;7.33;;;6.00;;
3359;SDS011;1693;49.602;11.046;2023-04-25T07:04:52;5.90;;;5.30;;
3359;SDS011;1693;49.602;11.046;2023-04-25T07:07:21;7.27;;;6.10;;
3359;SDS011;1693;49.602;11.046;2023-04-25T07:09:48;7.67;;;6.27;;
3359;SDS011;1693;49.602;11.046;2023-04-25T07:12:15;9.10;;;6.60;;
3359;SDS011;1693;49.602;11.046;2023-04-25T07:14:42;11.13;;;6.33;;
3359;SDS011;1693;49.602;11.046;2023-04-25T07:17:10;6.63;;;5.50;;
3359;SDS011;1693;49.602;11.046;2023-04-25T07:19:37;7.87;;;5.87;;
3359;SDS011;1693;49.602;11.046;2023-04-25T07:22:06;5.97;;;5.20;;
3359;SDS011;1693;49.602;11.046;2023-04-25T07:24:33;15.47;;;6.50;;
3359;SDS011;1693;49.602;11.046;2023-04-25T07:27:00;4.90;;;4.50;;
3359;SDS011;1693;49.602;11.046;2023-04-25T07:29:28;5.30;;;4.80;;
3359;SDS011;1693;49.602;11.046;2023-04-25T07:31:55;9.30;;;5.30;;
3359;SDS011;1693;49.602;11.046;2023-04-25T07:34:22;5.93;;;5.43;;
3359;SDS011;1693;49.602;11.046;2023-04-25T07:36:50;8.17;;;5.83;;
3359;SDS011;1693;49.602;11.046;2023-04-25T07:39:20;6.93;;;6.30;;
3359;SDS011;1693;49.602;11.046;2023-04-25T07:41:48;5.83;;;5.33;;
3359;SDS011;1693;49.602;11.046;2023-04-25T07:44:15;8.67;;;5.70;;
3359;SDS011;1693;49.602;11.046;2023-04-25T07:46:42;8.50;;;5.03;;
3359;SDS011;1693;49.602;11.046;2023-04-25T07:49:09;9.23;;;6.40;;
3359;SDS011;1693;49.602;11.046;2023-04-25T07:51:37;11.17;;;6.37;;
3359;SDS011;1693;49.602;11.046;2023-04-25T07:54:05;6.97;;;5.80;;
3359;SDS011;1693;49.602;11.046;2023-04-25T07:56:33;5.70;;;4.80;;
3359;SDS011;1693;49.602;11.046;2023-04-25T07:59:01;17.50;;;5.17;;
3359;SDS011;1693;49.602;11.046;2023-04-25T08:01:28;6.13;;;5.10;;
3359;SDS011;1693;49.602;11.046;2023-04-25T08:03:55;6.87;;;5.50;;
3359;SDS011;1693;49.602;11.046;2023-04-25T08:06:22;5.30;;;4.80;;
3359;SDS011;1693;49.602;11.046;2023-04-25T08:08:49;7.20;;;5.07;;
3359;SDS011;1693;49.602;11.046;2023-04-25T08:11:17;5.27;;;4.77;;
3359;SDS011;1693;49.602;11.046;2023-04-25T08:13:46;5.77;;;4.87;;
3359;SDS011;1693;49.602;11.046;2023-04-25T08:16:14;7.67;;;5.03;;
3359;SDS011;1693;49.602;11.046;2023-04-25T08:18:41;7.07;;;5.90;;
3359;SDS011;1693;49.602;11.046;2023-04-25T08:21:08;6.03;;;5.07;;
3359;SDS011;1693;49.602;11.046;2023-04-25T08:23:36;7.30;;;6.07;;
3359;SDS011;1693;49.602;11.046;2023-04-25T08:26:03;9.27;;;5.60;;
3359;SDS011;1693;49.602;11.046;2023-04-25T08:28:31;8.87;;;5.53;;
3359;SDS011;1693;49.602;11.046;2023-04-25T08:30:59;6.00;;;5.40;;
3359;SDS011;1693;49.602;11.046;2023-04-25T08:33:27;6.70;;;5.67;;
3359;SDS011;1693;49.602;11.046;2023-04-25T08:35:55;7.63;;;5.60;;
3359;SDS011;1693;49.602;11.046;2023-04-25T08:38:22;6.30;;;5.00;;
3359;SDS011;1693;49.602;11.046;2023-04-25T08:40:50;8.00;;;6.00;;
3359;SDS011;1693;49.602;11.046;2023-04-25T08:43:18;6.30;;;5.53;;
3359;SDS011;1693;49.602;11.046;2023-04-25T08:45:46;7.40;;;6.03;;
3359;SDS011;1693;49.602;11.046;2023-04-25T08:48:15;7.57;;;5.07;;
3359;SDS011;1693;49.602;11.046;2023-04-25T08:50:45;6.90;;;5.80;;
3359;SDS011;1693;49.602;11.046;2023-04-25T08:53:16;9.60;;;5.20;;
3359;SDS011;1693;49.602;11.046;2023-04-25T08:55:45;11.33;;;6.60;;
3359;SDS011;1693;49.602;11.046;2023-04-25T08:58:12;7.57;;;5.47;;
3359;SDS011;1693;49.602;11.046;2023-04-25T09:00:40;6.00;;;5.50;;
3359;SDS011;1693;49.602;11.046;2023-04-25T09:03:07;6.37;;;5.73;;
3359;SDS011;1693;49.602;11.046;2023-04-25T09:05:36;6.80;;;5.20;;
3359;SDS011;1693;49.602;11.046;2023-04-25T09:08:05;7.70;;;5.87;;
3359;SDS011;1693;49.602;11.046;2023-04-25T09:10:33;7.07;;;5.70;;
3359;SDS011;1693;49.602;11.046;2023-04-25T09:13:04;5.10;;;4.60;;
3359;SDS011;1693;49.602;11.046;2023-04-25T09:15:46;8.90;;;5.33;;
3359;SDS011;1693;49.602;11.046;2023-04-25T09:18:25;5.90;;;4.80;;
3359;SDS011;1693;49.602;11.046;2023-04-25T09:21:04;5.43;;;4.67;;
3359;SDS011;1693;49.602;11.046;2023-04-25T09:23:57;4.67;;;4.10;;
3359;SDS011;1693;49.602;11.046;2023-04-25T09:26:41;6.77;;;4.57;;
3359;SDS011;1693;49.602;11.046;2023-04-25T09:29:10;4.93;;;3.83;;
3359;SDS011;1693;49.602;11.046;2023-04-25T09:31:37;5.67;;;4.07;;
3359;SDS011;1693;49.602;11.046;2023-04-25T09:34:04;4.40;;;3.53;;
3359;SDS011;1693;49.602;11.046;2023-04-25T09:36:34;4.07;;;3.67;;
3359;SDS011;1693;49.602;11.046;2023-04-25T09:39:02;5.27;;;3.60;;
3359;SDS011;1693;49.602;11.046;2023-04-25T09:41:40;3.93;;;3.33;;
3359;SDS011;1693;49.602;11.046;2023-04-25T09:44:10;3.53;;;3.10;;
3359;SDS011;1693;49.602;11.046;2023-04-25T09:46:41;3.20;;;2.83;;
3359;SDS011;1693;49.602;11.046;2023-04-25T09:49:10;4.80;;;2.70;;
3359;SDS011;1693;49.602;11.046;2023-04-25T09:51:39;2.67;;;2.17;;
3359;SDS011;1693;49.602;11.046;2023-04-25T09:54:06;1.90;;;1.70;;
3359;SDS011;1693;49.602;11.046;2023-04-25T09:56:35;3.00;;;2.00;;
3359;SDS011;1693;49.602;11.046;2023-04-25T09:59:03;2.53;;;2.33;;
3359;SDS011;1693;49.602;11.046;2023-04-25T10:01:32;5.43;;;2.57;;
3359;SDS011;1693;49.602;11.046;2023-04-25T10:04:02;2.60;;;2.30;;
3359;SDS011;1693;49.602;11.046;2023-04-25T10:06:33;4.27;;;1.90;;
3359;SDS011;1693;49.602;11.046;2023-04-25T10:09:03;3.10;;;2.47;;
3359;SDS011;1693;49.602;11.046;2023-04-25T10:11:33;2.30;;;1.57;;
3359;SDS011;1693;49.602;11.046;2023-04-25T10:14:01;3.20;;;2.20;;
3359;SDS011;1693;49.602;11.046;2023-04-25T10:16:31;2.00;;;1.60;;
3359;SDS011;1693;49.602;11.046;2023-04-25T10:19:05;2.00;;;1.60;;
3359;SDS011;1693;49.602;11.046;2023-04-25T10:21:50;4.13;;;2.07;;
3359;SDS011;1693;49.602;11.046;2023-04-25T10:24:50;3.03;;;2.00;;
3359;SDS011;1693;49.602;11.046;2023-04-25T10:27:17;2.50;;;1.80;;
3359;SDS011;1693;49.602;11.046;2023-04-25T10:29:45;2.03;;;1.50;;
3359;SDS011;1693;49.602;11.046;2023-04-25T10:32:26;3.13;;;2.13;;
3359;SDS011;1693;49.602;11.046;2023-04-25T10:34:53;2.40;;;2.20;;
3359;SDS011;1693;49.602;11.046;2023-04-25T10:37:20;1.53;;;1.40;;
3359;SDS011;1693;49.602;11.046;2023-04-25T10:39:49;2.90;;;2.00;;
3359;SDS011;1693;49.602;11.046;2023-04-25T10:42:18;1.80;;;1.70;;
3359;SDS011;1693;49.602;11.046;2023-04-25T10:45:00;4.40;;;2.80;;
3359;SDS011;1693;49.602;11.046;2023-04-25T10:47:34;17.50;;;6.63;;
3359;SDS011;1693;49.602;11.046;2023-04-25T10:50:07;3.00;;;2.60;;
3359;SDS011;1693;49.602;11.046;2023-04-25T10:52:35;3.03;;;2.70;;
3359;SDS011;1693;49.602;11.046;2023-04-25T10:55:07;2.77;;;2.47;;
3359;SDS011;1693;49.602;11.046;2023-04-25T10:57:39;2.87;;;1.60;;
3359;SDS011;1693;49.602;11.046;2023-04-25T11:00:08;1.97;;;1.60;;
3359;SDS011;1693;49.602;11.046;2023-04-25T11:02:37;2.40;;;1.33;;
3359;SDS011;1693;49.602;11.046;2023-04-25T11:05:08;4.30;;;2.27;;
3359;SDS011;1693;49.602;11.046;2023-04-25T11:07:37;2.10;;;1.50;;
3359;SDS011;1693;49.602;11.046;2023-04-25T11:10:11;2.80;;;1.77;;
3359;SDS011;1693;49.602;11.046;2023-04-25T11:12:38;2.00;;;1.50;;
3359;SDS011;1693;49.602;11.046;2023-04-25T11:15:06;4.40;;;2.13;;
3359;SDS011;1693;49.602;11.046;2023-04-25T11:17:34;1.90;;;1.50;;
3359;SDS011;1693;49.602;11.046;2023-04-25T11:20:02;3.60;;;1.70;;
3359;SDS011;1693;49.602;11.046;2023-04-25T11:22:34;4.23;;;1.83;;
3359;SDS011;1693;49.602;11.046;2023-04-25T11:25:04;2.83;;;1.53;;
3359;SDS011;1693;49.602;11.046;2023-04-25T11:27:34;2.47;;;1.70;;
3359;SDS011;1693;49.602;11.046;2023-04-25T11:30:09;1.83;;;1.50;;
3359;SDS011;1693;49.602;11.046;2023-04-25T11:32:39;2.47;;;1.70;;
3359;SDS011;1693;49.602;11.046;2023-04-25T11:35:08;1.73;;;1.60;;
3359;SDS011;1693;49.602;11.046;2023-04-25T11:37:36;2.30;;;1.40;;
3359;SDS011;1693;49.602;11.046;2023-04-25T11:40:05;1.83;;;1.43;;
3359;SDS011;1693;49.602;11.046;2023-04-25T11:42:37;3.80;;;1.67;;
3359;SDS011;1693;49.602;11.046;2023-04-25T11:45:05;1.83;;;1.20;;
3359;SDS011;1693;49.602;11.046;2023-04-25T11:47:33;3.00;;;1.43;;
3359;SDS011;1693;49.602;11.046;2023-04-25T11:50:00;2.00;;;1.33;;
3359;SDS011;1693;49.602;11.046;2023-04-25T11:52:35;1.93;;;1.40;;
3359;SDS011;1693;49.602;11.046;2023-04-25T11:55:06;1.40;;;1.30;;
3359;SDS011;1693;49.602;11.046;2023-04-25T11:57:34;1.80;;;1.40;;
3359;SDS011;1693;49.602;11.046;2023-04-25T12:00:07;2.87;;;1.50;;
3359;SDS011;1693;49.602;11.046;2023-04-25T12:02:36;1.60;;;1.37;;
3359;SDS011;1693;49.602;11.046;2023-04-25T12:05:05;2.20;;;1.40;;
3359;SDS011;1693;49.602;11.046;2023-04-25T12:07:33;2.20;;;1.30;;
3359;SDS011;1693;49.602;11.046;2023-04-25T12:10:04;2.80;;;1.50;;
3359;SDS011;1693;49.602;11.046;2023-04-25T12:12:32;3.27;;;1.43;;
3359;SDS011;1693;49.602;11.046;2023-04-25T12:15:09;1.60;;;1.13;;
3359;SDS011;1693;49.602;11.046;2023-04-25T12:17:38;2.93;;;1.50;;
3359;SDS011;1693;49.602;11.046;2023-04-25T12:20:05;2.10;;;1.50;;
3359;SDS011;1693;49.602;11.046;2023-04-25T12:22:34;2.13;;;1.40;;
3359;SDS011;1693;49.602;11.046;2023-04-25T12:25:02;3.17;;;1.60;;
3359;SDS011;1693;49.602;11.046;2023-04-25T12:27:30;1.93;;;1.20;;
3359;SDS011;1693;49.602;11.046;2023-04-25T12:29:58;1.87;;;1.20;;
3359;SDS011;1693;49.602;11.046;2023-04-25T12:32:35;3.90;;;1.57;;
3359;SDS011;1693;49.602;11.046;2023-04-25T12:35:08;1.83;;;1.40;;
3359;SDS011;1693;49.602;11.046;2023-04-25T12:37:41;1.80;;;1.60;;
3359;SDS011;1693;49.602;11.046;2023-04-25T12:40:08;2.17;;;1.80;;
3359;SDS011;1693;49.602;11.046;2023-04-25T12:42:36;2.60;;;1.37;;
3359;SDS011;1693;49.602;11.046;2023-04-25T12:45:04;1.70;;;1.40;;
3359;SDS011;1693;49.602;11.046;2023-04-25T12:47:33;1.63;;;1.30;;
3359;SDS011;1693;49.602;11.046;2023-04-25T12:50:03;3.10;;;1.63;;
3359;SDS011;1693;49.602;11.046;2023-04-25T12:52:31;2.27;;;1.43;;
3359;SDS011;1693;49.602;11.046;2023-04-25T12:54:58;1.70;;;1.40;;
3359;SDS011;1693;49.602;11.046;2023-04-25T12:57:25;2.60;;;1.37;;
3359;SDS011;1693;49.602;11.046;2023-04-25T12:59:52;1.90;;;1.30;;
3359;SDS011;1693;49.602;11.046;2023-04-25T13:02:19;2.80;;;1.50;;
3359;SDS011;1693;49.602;11.046;2023-04-25T13:04:47;3.97;;;1.53;;
3359;SDS011;1693;49.602;11.046;2023-04-25T13:07:14;1.90;;;1.73;;
3359;SDS011;1693;49.602;11.046;2023-04-25T13:09:42;2.80;;;1.90;;
3359;SDS011;1693;49.602;11.046;2023-04-25T13:12:09;2.90;;;1.90;;
3359;SDS011;1693;49.602;11.046;2023-04-25T13:14:36;12.20;;;9.00;;
3359;SDS011;1693;49.602;11.046;2023-04-25T13:17:03;10.60;;;8.97;;
3359;SDS011;1693;49.602;11.046;2023-04-25T13:19:30;3.30;;;2.17;;
3359;SDS011;1693;49.602;11.046;2023-04-25T13:22:00;4.70;;;2.27;;
3359;SDS011;1693;49.602;11.046;2023-04-25T13:24:29;2.97;;;1.83;;
3359;SDS011;1693;49.602;11.046;2023-04-25T13:26:56;2.13;;;1.67;;
3359;SDS011;1693;49.602;11.046;2023-04-25T13:29:23;2.73;;;2.17;;
3359;SDS011;1693;49.602;11.046;2023-04-25T13:31:50;4.70;;;2.40;;
3359;SDS011;1693;49.602;11.046;2023-04-25T13:34:17;3.87;;;1.80;;
3359;SDS011;1693;49.602;11.046;2023-04-25T13:36:44;3.67;;;2.20;;
3359;SDS011;1693;49.602;11.046;2023-04-25T13:39:13;3.30;;;2.37;;
3359;SDS011;1693;49.602;11.046;2023-04-25T13:41:40;3.17;;;2.17;;
3359;SDS011;1693;49.602;11.046;2023-04-25T13:44:07;2.60;;;2.20;;
3359;SDS011;1693;49.602;11.046;2023-04-25T13:46:34;2.60;;;1.73;;
3359;SDS011;1693;49.602;11.046;2023-04-25T13:49:02;2.87;;;2.00;;
3359;SDS011;1693;49.602;11.046;2023-04-25T13:51:29;2.00;;;1.80;;
3359;SDS011;1693;49.602;11.046;2023-04-25T13:53:56;1.97;;;1.50;;
3359;SDS011;1693;49.602;11.046;2023-04-25T13:56:25;3.90;;;1.87;;
3359;SDS011;1693;49.602;11.046;2023-04-25T13:58:53;2.53;;;2.33;;
3359;SDS011;1693;49.602;11.046;2023-04-25T14:01:21;3.30;;;2.00;;
3359;SDS011;1693;49.602;11.046;2023-04-25T14:03:48;1.93;;;1.80;;
3359;SDS011;1693;49.602;11.046;2023-04-25T14:06:16;3.93;;;2.07;;
3359;SDS011;1693;49.602;11.046;2023-04-25T14:08:47;2.47;;;2.27;;
3359;SDS011;1693;49.602;11.046;2023-04-25T14:11:15;2.23;;;2.03;;
3359;SDS011;1693;49.602;11.046;2023-04-25T14:13:44;3.70;;;2.97;;
3359;SDS011;1693;49.602;11.046;2023-04-25T14:16:12;3.33;;;2.40;;
3359;SDS011;1693;49.602;11.046;2023-04-25T14:18:39;3.27;;;2.13;;
3359;SDS011;1693;49.602;11.046;2023-04-25T14:21:06;5.20;;;2.50;;
3359;SDS011;1693;49.602;11.046;2023-04-25T14:23:34;3.20;;;2.07;;
3359;SDS011;1693;49.602;11.046;2023-04-25T14:26:01;4.03;;;2.27;;
3359;SDS011;1693;49.602;11.046;2023-04-25T14:28:28;3.30;;;1.80;;
3359;SDS011;1693;49.602;11.046;2023-04-25T14:30:57;3.03;;;2.47;;
3359;SDS011;1693;49.602;11.046;2023-04-25T14:33:24;5.60;;;2.83;;
3359;SDS011;1693;49.602;11.046;2023-04-25T14:35:51;2.80;;;2.13;;
3359;SDS011;1693;49.602;11.046;2023-04-25T14:38:19;10.90;;;2.90;;
3359;SDS011;1693;49.602;11.046;2023-04-25T14:40:48;4.53;;;2.63;;
3359;SDS011;1693;49.602;11.046;2023-04-25T14:43:15;4.93;;;2.90;;
3359;SDS011;1693;49.602;11.046;2023-04-25T14:45:42;3.47;;;1.83;;
3359;SDS011;1693;49.602;11.046;2023-04-25T14:48:11;3.13;;;2.37;;
3359;SDS011;1693;49.602;11.046;2023-04-25T14:50:39;3.10;;;2.13;;
3359;SDS011;1693;49.602;11.046;2023-04-25T14:53:06;2.10;;;1.90;;
3359;SDS011;1693;49.602;11.046;2023-04-25T14:55:33;2.77;;;2.57;;
3359;SDS011;1693;49.602;11.046;2023-04-25T14:58:00;5.17;;;2.40;;
3359;SDS011;1693;49.602;11.046;2023-04-25T15:00:27;1.70;;;1.60;;
3359;SDS011;1693;49.602;11.046;2023-04-25T15:02:56;2.70;;;2.37;;
3359;SDS011;1693;49.602;11.046;2023-04-25T15:05:26;2.37;;;2.10;;
3359;SDS011;1693;49.602;11.046;2023-04-25T15:07:55;2.60;;;1.80;;